sensor_id;sensor_type;location;lat;lon;timestamp;pressure;altitude;pressure_sealevel;temperature;humidity
17309;BME280;8772;42.804;23.426;2023-05-18T00:00:44;73013.78;;;-140.58;100.00
17309;BME280;8772;42.804;23.426;2023-05-18T00:03:11;73009.69;;;-140.58;100.00
17309;BME280;8772;42.804;23.426;2023-05-18T00:05:39;73007.63;;;-140.58;100.00
17309;BME280;8772;42.804;23.426;2023-05-18T00:08:07;73007.63;;;-140.58;100.00
17309;BME280;8772;42.804;23.426;2023-05-18T00:10:34;73005.59;;;-140.58;100.00
17309;BME280;8772;42.804;23.426;2023-05-18T00:13:01;73013.78;;;-140.58;100.00
17309;BME280;8772;42.804;23.426;2023-05-18T00:15:29;73015.84;;;-140.58;100.00
17309;BME280;8772;42.804;23.426;2023-05-18T00:17:56;73013.78;;;-140.58;100.00
17309;BME280;8772;42.804;23.426;2023-05-18T00:20:24;73009.69;;;-140.58;100.00
17309;BME280;8772;42.804;23.426;2023-05-18T00:22:53;73013.78;;;-140.58;100.00
17309;BME280;8772;42.804;23.426;2023-05-18T00:25:20;73017.91;;;-140.58;100.00
17309;BME280;8772;42.804;23.426;2023-05-18T00:27:47;73024.03;;;-140.58;100.00
17309;BME280;8772;42.804;23.426;2023-05-18T00:30:16;73022.00;;;-140.58;100.00
17309;BME280;8772;42.804;23.426;2023-05-18T00:32:43;73034.31;;;-140.58;100.00
17309;BME280;8772;42.804;23.426;2023-05-18T00:35:10;73036.34;;;-140.58;100.00
17309;BME280;8772;42.804;23.426;2023-05-18T00:37:37;73042.50;;;-140.58;100.00
17309;BME280;8772;42.804;23.426;2023-05-18T00:40:06;73048.66;;;-140.58;100.00
17309;BME280;8772;42.804;23.426;2023-05-18T00:42:33;73046.59;;;-140.58;100.00
17309;BME280;8772;42.804;23.426;2023-05-18T00:45:00;73048.66;;;-140.58;100.00
17309;BME280;8772;42.804;23.426;2023-05-18T00:47:27;73054.81;;;-140.58;100.00
17309;BME280;8772;42.804;23.426;2023-05-18T00:49:54;73046.59;;;-140.58;100.00
17309;BME280;8772;42.804;23.426;2023-05-18T00:52:21;73046.59;;;-140.58;100.00
17309;BME280;8772;42.804;23.426;2023-05-18T00:54:49;73054.81;;;-140.58;100.00
17309;BME280;8772;42.804;23.426;2023-05-18T00:57:18;73052.75;;;-140.58;100.00
17309;BME280;8772;42.804;23.426;2023-05-18T00:59:45;73050.72;;;-140.58;100.00
17309;BME280;8772;42.804;23.426;2023-05-18T01:02:12;73046.59;;;-140.58;100.00
17309;BME280;8772;42.804;23.426;2023-05-18T01:08:01;73063.00;;;-140.58;100.00
17309;BME280;8772;42.804;23.426;2023-05-18T01:10:32;73058.91;;;-140.58;100.00
17309;BME280;8772;42.804;23.426;2023-05-18T01:13:04;73054.81;;;-140.58;100.00
17309;BME280;8772;42.804;23.426;2023-05-18T01:15:34;73054.81;;;-140.58;100.00
17309;BME280;8772;42.804;23.426;2023-05-18T01:18:08;73056.84;;;-140.58;100.00
17309;BME280;8772;42.804;23.426;2023-05-18T01:20:43;73054.81;;;-140.58;100.00
17309;BME280;8772;42.804;23.426;2023-05-18T01:26:15;73050.72;;;-140.58;100.00
17309;BME280;8772;42.804;23.426;2023-05-18T01:28:45;73052.75;;;-140.58;100.00
17309;BME280;8772;42.804;23.426;2023-05-18T01:31:13;73050.72;;;-140.58;100.00
17309;BME280;8772;42.804;23.426;2023-05-18T01:33:40;73046.59;;;-140.58;100.00
17309;BME280;8772;42.804;23.426;2023-05-18T01:36:08;73046.59;;;-140.58;100.00
17309;BME280;8772;42.804;23.426;2023-05-18T01:38:35;73042.50;;;-140.58;100.00
17309;BME280;8772;42.804;23.426;2023-05-18T01:41:10;73052.75;;;-140.58;100.00
17309;BME280;8772;42.804;23.426;2023-05-18T01:43:44;73050.72;;;-140.58;100.00
17309;BME280;8772;42.804;23.426;2023-05-18T01:46:25;73050.72;;;-140.58;100.00
17309;BME280;8772;42.804;23.426;2023-05-18T01:48:59;73058.91;;;-140.58;100.00
17309;BME280;8772;42.804;23.426;2023-05-18T01:51:31;73058.91;;;-140.58;100.00
17309;BME280;8772;42.804;23.426;2023-05-18T01:54:04;73056.84;;;-140.58;100.00
17309;BME280;8772;42.804;23.426;2023-05-18T01:56:33;73063.00;;;-140.58;100.00
17309;BME280;8772;42.804;23.426;2023-05-18T01:59:02;73058.91;;;-140.58;100.00
17309;BME280;8772;42.804;23.426;2023-05-18T02:01:29;73067.13;;;-140.58;100.00
17309;BME280;8772;42.804;23.426;2023-05-18T02:03:56;73067.13;;;-140.58;100.00
17309;BME280;8772;42.804;23.426;2023-05-18T02:06:23;73079.41;;;-140.58;100.00
17309;BME280;8772;42.804;23.426;2023-05-18T02:08:50;73083.53;;;-140.58;100.00
17309;BME280;8772;42.804;23.426;2023-05-18T02:11:17;73083.53;;;-140.58;100.00
17309;BME280;8772;42.804;23.426;2023-05-18T02:13:44;73081.47;;;-140.58;100.00
17309;BME280;8772;42.804;23.426;2023-05-18T02:16:12;73081.47;;;-140.58;100.00
17309;BME280;8772;42.804;23.426;2023-05-18T02:18:39;73083.53;;;-140.58;100.00
17309;BME280;8772;42.804;23.426;2023-05-18T02:21:06;73081.47;;;-140.58;100.00
17309;BME280;8772;42.804;23.426;2023-05-18T02:23:34;73081.47;;;-140.58;100.00
17309;BME280;8772;42.804;23.426;2023-05-18T02:26:01;73075.31;;;-140.58;100.00
17309;BME280;8772;42.804;23.426;2023-05-18T02:28:28;73081.47;;;-140.58;100.00
17309;BME280;8772;42.804;23.426;2023-05-18T02:31:03;73079.41;;;-140.58;100.00
17309;BME280;8772;42.804;23.426;2023-05-18T02:33:32;73079.41;;;-140.58;100.00
17309;BME280;8772;42.804;23.426;2023-05-18T02:36:00;73083.53;;;-140.58;100.00
17309;BME280;8772;42.804;23.426;2023-05-18T02:38:27;73097.88;;;-140.58;100.00
17309;BME280;8772;42.804;23.426;2023-05-18T02:40:54;73095.81;;;-140.58;100.00
17309;BME280;8772;42.804;23.426;2023-05-18T02:43:21;73099.94;;;-140.58;100.00
17309;BME280;8772;42.804;23.426;2023-05-18T02:45:48;73108.13;;;-140.58;100.00
17309;BME280;8772;42.804;23.426;2023-05-18T02:48:15;73099.94;;;-140.58;100.00
17309;BME280;8772;42.804;23.426;2023-05-18T02:50:44;73112.25;;;-140.58;100.00
17309;BME280;8772;42.804;23.426;2023-05-18T02:53:11;73116.34;;;-140.58;100.00
17309;BME280;8772;42.804;23.426;2023-05-18T02:55:38;73112.25;;;-140.58;100.00
17309;BME280;8772;42.804;23.426;2023-05-18T02:58:05;73126.59;;;-140.58;100.00
17309;BME280;8772;42.804;23.426;2023-05-18T03:00:32;73128.66;;;-140.58;100.00
17309;BME280;8772;42.804;23.426;2023-05-18T03:02:59;73136.84;;;-140.58;100.00
17309;BME280;8772;42.804;23.426;2023-05-18T03:05:27;73147.09;;;-140.58;100.00
17309;BME280;8772;42.804;23.426;2023-05-18T03:07:55;73145.06;;;-140.58;100.00
17309;BME280;8772;42.804;23.426;2023-05-18T03:10:23;73136.84;;;-140.58;100.00
17309;BME280;8772;42.804;23.426;2023-05-18T03:12:49;73143.00;;;-140.58;100.00
17309;BME280;8772;42.804;23.426;2023-05-18T03:15:16;73163.50;;;-140.58;100.00
17309;BME280;8772;42.804;23.426;2023-05-18T03:17:44;73165.56;;;-140.58;100.00
17309;BME280;8772;42.804;23.426;2023-05-18T03:20:11;73165.56;;;-140.58;100.00
17309;BME280;8772;42.804;23.426;2023-05-18T03:22:39;73155.31;;;-140.58;100.00
17309;BME280;8772;42.804;23.426;2023-05-18T03:25:07;73159.41;;;-140.58;100.00
17309;BME280;8772;42.804;23.426;2023-05-18T03:27:34;73153.25;;;-140.58;100.00
17309;BME280;8772;42.804;23.426;2023-05-18T03:30:03;73149.16;;;-140.58;100.00
17309;BME280;8772;42.804;23.426;2023-05-18T03:32:30;73153.25;;;-140.58;100.00
17309;BME280;8772;42.804;23.426;2023-05-18T03:34:57;73153.25;;;-140.58;100.00
17309;BME280;8772;42.804;23.426;2023-05-18T03:37:25;73149.16;;;-140.58;100.00
17309;BME280;8772;42.804;23.426;2023-05-18T03:39:52;73149.16;;;-140.58;100.00
17309;BME280;8772;42.804;23.426;2023-05-18T03:42:21;73149.16;;;-140.58;100.00
17309;BME280;8772;42.804;23.426;2023-05-18T03:44:48;73145.06;;;-140.58;100.00
17309;BME280;8772;42.804;23.426;2023-05-18T03:47:15;73140.94;;;-140.58;100.00
17309;BME280;8772;42.804;23.426;2023-05-18T03:49:43;73136.84;;;-140.58;100.00
17309;BME280;8772;42.804;23.426;2023-05-18T03:52:10;73161.47;;;-140.58;100.00
17309;BME280;8772;42.804;23.426;2023-05-18T03:54:39;73147.09;;;-140.58;100.00
17309;BME280;8772;42.804;23.426;2023-05-18T03:57:07;73147.09;;;-140.58;100.00
17309;BME280;8772;42.804;23.426;2023-05-18T03:59:35;73151.22;;;-140.58;100.00
17309;BME280;8772;42.804;23.426;2023-05-18T04:02:02;73151.22;;;-140.58;100.00
17309;BME280;8772;42.804;23.426;2023-05-18T04:04:29;73165.56;;;-140.58;100.00
17309;BME280;8772;42.804;23.426;2023-05-18T04:06:56;73153.25;;;-140.58;100.00
17309;BME280;8772;42.804;23.426;2023-05-18T04:09:26;73145.06;;;-140.58;100.00
17309;BME280;8772;42.804;23.426;2023-05-18T04:11:53;73140.94;;;-140.58;100.00
17309;BME280;8772;42.804;23.426;2023-05-18T04:14:20;73140.94;;;-140.58;100.00
17309;BME280;8772;42.804;23.426;2023-05-18T04:16:50;73138.91;;;-140.58;100.00
17309;BME280;8772;42.804;23.426;2023-05-18T04:19:17;73140.94;;;-140.58;100.00
17309;BME280;8772;42.804;23.426;2023-05-18T04:21:46;73136.84;;;-140.58;100.00
17309;BME280;8772;42.804;23.426;2023-05-18T04:24:14;73134.78;;;-140.58;100.00
17309;BME280;8772;42.804;23.426;2023-05-18T04:26:41;73138.91;;;-140.58;100.00
17309;BME280;8772;42.804;23.426;2023-05-18T04:29:08;73136.84;;;-140.58;100.00
17309;BME280;8772;42.804;23.426;2023-05-18T04:31:35;73132.75;;;-140.58;100.00
17309;BME280;8772;42.804;23.426;2023-05-18T04:34:04;73128.66;;;-140.58;100.00
17309;BME280;8772;42.804;23.426;2023-05-18T04:36:31;73128.66;;;-140.58;100.00
17309;BME280;8772;42.804;23.426;2023-05-18T04:39:00;73124.53;;;-140.58;100.00
17309;BME280;8772;42.804;23.426;2023-05-18T04:41:32;73124.53;;;-140.58;100.00
17309;BME280;8772;42.804;23.426;2023-05-18T04:43:59;73118.38;;;-140.58;100.00
17309;BME280;8772;42.804;23.426;2023-05-18T04:46:27;73126.59;;;-140.58;100.00
17309;BME280;8772;42.804;23.426;2023-05-18T04:48:54;73120.44;;;-140.58;100.00
17309;BME280;8772;42.804;23.426;2023-05-18T04:51:23;73120.44;;;-140.58;100.00
17309;BME280;8772;42.804;23.426;2023-05-18T04:53:50;73114.28;;;-140.58;100.00
17309;BME280;8772;42.804;23.426;2023-05-18T04:56:18;73104.03;;;-140.58;100.00
17309;BME280;8772;42.804;23.426;2023-05-18T04:58:45;73104.03;;;-140.58;100.00
17309;BME280;8772;42.804;23.426;2023-05-18T05:01:12;73097.88;;;-140.58;100.00
17309;BME280;8772;42.804;23.426;2023-05-18T05:03:39;73095.81;;;-140.58;100.00
17309;BME280;8772;42.804;23.426;2023-05-18T05:06:07;73091.72;;;-140.58;100.00
17309;BME280;8772;42.804;23.426;2023-05-18T05:08:35;73087.63;;;-140.58;100.00
17309;BME280;8772;42.804;23.426;2023-05-18T05:11:03;73083.53;;;-140.58;100.00
17309;BME280;8772;42.804;23.426;2023-05-18T05:13:30;73087.63;;;-140.58;100.00
17309;BME280;8772;42.804;23.426;2023-05-18T05:15:57;73087.63;;;-140.58;100.00
17309;BME280;8772;42.804;23.426;2023-05-18T05:18:24;73075.31;;;-140.58;100.00
17309;BME280;8772;42.804;23.426;2023-05-18T05:20:51;73089.69;;;-140.58;100.00
17309;BME280;8772;42.804;23.426;2023-05-18T05:23:17;73099.94;;;-140.58;100.00
17309;BME280;8772;42.804;23.426;2023-05-18T05:25:46;73087.63;;;-140.58;100.00
17309;BME280;8772;42.804;23.426;2023-05-18T05:28:13;73083.53;;;-140.58;100.00
17309;BME280;8772;42.804;23.426;2023-05-18T05:30:40;73077.38;;;-140.58;100.00
17309;BME280;8772;42.804;23.426;2023-05-18T05:33:07;73071.22;;;-140.58;100.00
17309;BME280;8772;42.804;23.426;2023-05-18T05:35:34;73069.16;;;-140.58;100.00
17309;BME280;8772;42.804;23.426;2023-05-18T05:38:00;73067.13;;;-140.58;100.00
17309;BME280;8772;42.804;23.426;2023-05-18T05:40:27;73054.81;;;-140.58;100.00
17309;BME280;8772;42.804;23.426;2023-05-18T05:42:56;73052.75;;;-140.58;100.00
17309;BME280;8772;42.804;23.426;2023-05-18T05:45:23;73046.59;;;-140.58;100.00
17309;BME280;8772;42.804;23.426;2023-05-18T05:47:52;73054.81;;;-140.58;100.00
17309;BME280;8772;42.804;23.426;2023-05-18T05:50:19;73052.75;;;-140.58;100.00
17309;BME280;8772;42.804;23.426;2023-05-18T05:52:46;73097.88;;;-140.58;100.00
17309;BME280;8772;42.804;23.426;2023-05-18T05:55:13;73075.31;;;-140.58;100.00
17309;BME280;8772;42.804;23.426;2023-05-18T05:57:40;73077.38;;;-140.58;100.00
17309;BME280;8772;42.804;23.426;2023-05-18T06:00:10;73095.81;;;-140.58;100.00
17309;BME280;8772;42.804;23.426;2023-05-18T06:02:37;73104.03;;;-140.58;100.00
17309;BME280;8772;42.804;23.426;2023-05-18T06:05:04;73083.53;;;-140.58;100.00
17309;BME280;8772;42.804;23.426;2023-05-18T06:07:31;73067.13;;;-140.58;100.00
17309;BME280;8772;42.804;23.426;2023-05-18T06:09:58;73054.81;;;-140.58;100.00
17309;BME280;8772;42.804;23.426;2023-05-18T06:12:25;73054.81;;;-140.58;100.00
17309;BME280;8772;42.804;23.426;2023-05-18T06:14:54;73034.31;;;-140.58;100.00
17309;BME280;8772;42.804;23.426;2023-05-18T06:17:23;73054.81;;;-140.58;100.00
17309;BME280;8772;42.804;23.426;2023-05-18T06:19:50;73040.44;;;-140.58;100.00
17309;BME280;8772;42.804;23.426;2023-05-18T06:22:17;73022.00;;;-140.58;100.00
17309;BME280;8772;42.804;23.426;2023-05-18T06:24:44;73017.91;;;-140.58;100.00
17309;BME280;8772;42.804;23.426;2023-05-18T06:27:11;73036.34;;;-140.58;100.00
17309;BME280;8772;42.804;23.426;2023-05-18T06:29:38;73065.06;;;-140.58;100.00
17309;BME280;8772;42.804;23.426;2023-05-18T06:32:06;73060.97;;;-140.58;100.00
17309;BME280;8772;42.804;23.426;2023-05-18T06:34:34;73054.81;;;-140.58;100.00
17309;BME280;8772;42.804;23.426;2023-05-18T06:37:02;73050.72;;;-140.58;100.00
17309;BME280;8772;42.804;23.426;2023-05-18T06:39:29;73087.63;;;-140.58;100.00
17309;BME280;8772;42.804;23.426;2023-05-18T06:41:56;73091.72;;;-140.58;100.00
17309;BME280;8772;42.804;23.426;2023-05-18T06:44:23;73114.28;;;-140.58;100.00
17309;BME280;8772;42.804;23.426;2023-05-18T06:46:50;73087.63;;;-140.58;100.00
17309;BME280;8772;42.804;23.426;2023-05-18T06:49:17;73087.63;;;-140.58;100.00
17309;BME280;8772;42.804;23.426;2023-05-18T06:51:45;73071.22;;;-140.58;100.00
17309;BME280;8772;42.804;23.426;2023-05-18T06:54:12;73063.00;;;-140.58;100.00
17309;BME280;8772;42.804;23.426;2023-05-18T06:56:39;73079.41;;;-140.58;100.00
17309;BME280;8772;42.804;23.426;2023-05-18T06:59:06;73067.13;;;-140.58;100.00
17309;BME280;8772;42.804;23.426;2023-05-18T07:01:32;73067.13;;;-140.58;100.00
17309;BME280;8772;42.804;23.426;2023-05-18T07:03:59;73063.00;;;-140.58;100.00
17309;BME280;8772;42.804;23.426;2023-05-18T07:06:27;73077.38;;;-140.58;100.00
17309;BME280;8772;42.804;23.426;2023-05-18T07:08:55;73063.00;;;-140.58;100.00
17309;BME280;8772;42.804;23.426;2023-05-18T07:11:22;73075.31;;;-140.58;100.00
17309;BME280;8772;42.804;23.426;2023-05-18T07:13:49;73079.41;;;-140.58;100.00
17309;BME280;8772;42.804;23.426;2023-05-18T07:16:15;73099.94;;;-140.58;99.83
17309;BME280;8772;42.804;23.426;2023-05-18T07:18:42;73087.63;;;-140.58;99.80
17309;BME280;8772;42.804;23.426;2023-05-18T07:21:09;73097.88;;;-140.58;96.70
17309;BME280;8772;42.804;23.426;2023-05-18T07:23:36;73079.41;;;-140.58;100.00
17309;BME280;8772;42.804;23.426;2023-05-18T07:26:05;73095.81;;;-140.58;100.00
17309;BME280;8772;42.804;23.426;2023-05-18T07:28:34;73110.19;;;-140.58;100.00
17309;BME280;8772;42.804;23.426;2023-05-18T07:31:01;73097.88;;;-140.58;100.00
17309;BME280;8772;42.804;23.426;2023-05-18T07:33:28;73089.69;;;-140.58;100.00
17309;BME280;8772;42.804;23.426;2023-05-18T07:35:55;73095.81;;;-140.58;100.00
17309;BME280;8772;42.804;23.426;2023-05-18T07:38:22;73112.25;;;-140.58;98.16
17309;BME280;8772;42.804;23.426;2023-05-18T07:40:49;73085.56;;;-140.58;100.00
17309;BME280;8772;42.804;23.426;2023-05-18T07:43:17;73095.81;;;-140.58;100.00
17309;BME280;8772;42.804;23.426;2023-05-18T07:45:44;73112.25;;;-140.58;99.93
17309;BME280;8772;42.804;23.426;2023-05-18T07:48:11;73095.81;;;-140.58;100.00
17309;BME280;8772;42.804;23.426;2023-05-18T07:50:38;73087.63;;;-140.58;95.86
17309;BME280;8772;42.804;23.426;2023-05-18T07:53:04;73108.13;;;-140.58;94.66
17309;BME280;8772;42.804;23.426;2023-05-18T07:55:32;73099.94;;;-140.58;94.16
17309;BME280;8772;42.804;23.426;2023-05-18T07:57:59;73101.97;;;-140.58;98.04
17309;BME280;8772;42.804;23.426;2023-05-18T08:00:27;73120.44;;;-140.58;96.74
17309;BME280;8772;42.804;23.426;2023-05-18T08:02:54;73091.72;;;-140.58;94.97
17309;BME280;8772;42.804;23.426;2023-05-18T08:05:21;73083.53;;;-140.58;92.61
17309;BME280;8772;42.804;23.426;2023-05-18T08:07:48;73104.03;;;-140.58;92.27
17309;BME280;8772;42.804;23.426;2023-05-18T08:10:15;73095.81;;;-140.58;90.39
17309;BME280;8772;42.804;23.426;2023-05-18T08:12:42;73091.72;;;-140.58;93.12
17309;BME280;8772;42.804;23.426;2023-05-18T08:15:09;73126.59;;;-140.58;89.88
17309;BME280;8772;42.804;23.426;2023-05-18T08:17:38;73108.13;;;-140.58;91.66
17309;BME280;8772;42.804;23.426;2023-05-18T08:20:06;73132.75;;;-140.58;92.81
17309;BME280;8772;42.804;23.426;2023-05-18T08:22:34;73138.91;;;-140.58;89.72
17309;BME280;8772;42.804;23.426;2023-05-18T08:25:02;73155.31;;;-140.58;91.18
17309;BME280;8772;42.804;23.426;2023-05-18T08:27:28;73153.25;;;-140.58;94.67
17309;BME280;8772;42.804;23.426;2023-05-18T08:29:55;73140.94;;;-140.58;97.57
17309;BME280;8772;42.804;23.426;2023-05-18T08:32:22;73173.78;;;-140.58;91.79
17309;BME280;8772;42.804;23.426;2023-05-18T08:34:50;73155.31;;;-140.58;91.16
17309;BME280;8772;42.804;23.426;2023-05-18T08:37:18;73165.56;;;-140.58;91.20
17309;BME280;8772;42.804;23.426;2023-05-18T08:39:46;73169.66;;;-140.58;92.43
17309;BME280;8772;42.804;23.426;2023-05-18T08:42:19;73169.66;;;-140.58;94.37
17309;BME280;8772;42.804;23.426;2023-05-18T08:44:50;73181.97;;;-140.58;93.02
17309;BME280;8772;42.804;23.426;2023-05-18T08:47:23;73194.28;;;-140.58;94.38
17309;BME280;8772;42.804;23.426;2023-05-18T08:49:54;73184.03;;;-140.58;96.35
17309;BME280;8772;42.804;23.426;2023-05-18T08:52:24;73153.25;;;-140.58;94.35
17309;BME280;8772;42.804;23.426;2023-05-18T08:54:53;73181.97;;;-140.58;94.88
17309;BME280;8772;42.804;23.426;2023-05-18T08:57:21;73181.97;;;-140.58;96.38
17309;BME280;8772;42.804;23.426;2023-05-18T08:59:51;73165.56;;;-140.58;95.44
17309;BME280;8772;42.804;23.426;2023-05-18T09:02:18;73161.47;;;-140.58;99.79
17309;BME280;8772;42.804;23.426;2023-05-18T09:04:47;73181.97;;;-140.58;95.62
17309;BME280;8772;42.804;23.426;2023-05-18T09:07:16;73165.56;;;-140.58;96.74
17309;BME280;8772;42.804;23.426;2023-05-18T09:09:45;73167.63;;;-140.58;91.91
17309;BME280;8772;42.804;23.426;2023-05-18T09:12:13;73159.41;;;-140.58;90.58
17309;BME280;8772;42.804;23.426;2023-05-18T09:14:42;73169.66;;;-140.58;90.75
17309;BME280;8772;42.804;23.426;2023-05-18T09:17:09;73184.03;;;-140.58;95.42
17309;BME280;8772;42.804;23.426;2023-05-18T09:19:36;73190.19;;;-140.58;94.54
17309;BME280;8772;42.804;23.426;2023-05-18T09:22:03;73181.97;;;-140.58;94.29
17309;BME280;8772;42.804;23.426;2023-05-18T09:24:32;73190.19;;;-140.58;93.04
17309;BME280;8772;42.804;23.426;2023-05-18T09:26:59;73202.47;;;-140.58;90.87
17309;BME280;8772;42.804;23.426;2023-05-18T09:29:26;73186.06;;;-140.58;92.80
17309;BME280;8772;42.804;23.426;2023-05-18T09:31:53;73206.59;;;-140.58;92.39
17309;BME280;8772;42.804;23.426;2023-05-18T09:34:20;73212.75;;;-140.58;92.64
17309;BME280;8772;42.804;23.426;2023-05-18T09:36:50;73223.00;;;-140.58;95.40
17309;BME280;8772;42.804;23.426;2023-05-18T09:39:18;73206.59;;;-140.58;92.85
17309;BME280;8772;42.804;23.426;2023-05-18T09:41:53;73214.78;;;-140.58;93.65
17309;BME280;8772;42.804;23.426;2023-05-18T09:44:29;73223.00;;;-140.58;90.68
17309;BME280;8772;42.804;23.426;2023-05-18T09:46:56;73251.72;;;-140.58;92.80
17309;BME280;8772;42.804;23.426;2023-05-18T09:49:23;73227.09;;;-140.58;95.35
17309;BME280;8772;42.804;23.426;2023-05-18T09:51:50;73231.19;;;-140.58;96.80
17309;BME280;8772;42.804;23.426;2023-05-18T09:54:18;73255.81;;;-140.58;96.99
17309;BME280;8772;42.804;23.426;2023-05-18T09:56:46;73259.91;;;-140.58;94.58
17309;BME280;8772;42.804;23.426;2023-05-18T09:59:15;73253.75;;;-140.58;96.61
17309;BME280;8772;42.804;23.426;2023-05-18T10:01:58;73255.81;;;-140.58;97.68
17309;BME280;8772;42.804;23.426;2023-05-18T10:04:34;73264.03;;;-140.58;96.69
17309;BME280;8772;42.804;23.426;2023-05-18T10:07:01;73284.53;;;-140.58;95.86
17309;BME280;8772;42.804;23.426;2023-05-18T10:09:28;73296.84;;;-140.58;98.26
17309;BME280;8772;42.804;23.426;2023-05-18T10:11:57;73276.31;;;-140.58;94.80
17309;BME280;8772;42.804;23.426;2023-05-18T10:14:24;73284.53;;;-140.58;94.13
17309;BME280;8772;42.804;23.426;2023-05-18T10:16:54;73288.63;;;-140.58;95.26
17309;BME280;8772;42.804;23.426;2023-05-18T10:19:21;73280.44;;;-140.58;95.71
17309;BME280;8772;42.804;23.426;2023-05-18T10:21:49;73280.44;;;-140.58;93.42
17309;BME280;8772;42.804;23.426;2023-05-18T10:24:19;73268.13;;;-140.58;97.72
17309;BME280;8772;42.804;23.426;2023-05-18T10:26:47;73270.16;;;-140.58;95.49
17309;BME280;8772;42.804;23.426;2023-05-18T10:29:16;73280.44;;;-140.58;94.24
17309;BME280;8772;42.804;23.426;2023-05-18T10:31:44;73278.38;;;-140.58;92.35
17309;BME280;8772;42.804;23.426;2023-05-18T10:34:11;73284.53;;;-140.58;94.57
17309;BME280;8772;42.804;23.426;2023-05-18T10:36:39;73284.53;;;-140.58;93.67
17309;BME280;8772;42.804;23.426;2023-05-18T10:39:08;73268.13;;;-140.58;91.42
17309;BME280;8772;42.804;23.426;2023-05-18T10:41:37;73268.13;;;-140.58;93.04
17309;BME280;8772;42.804;23.426;2023-05-18T10:44:04;73268.13;;;-140.58;94.87
17309;BME280;8772;42.804;23.426;2023-05-18T10:46:34;73305.03;;;-140.58;95.44
17309;BME280;8772;42.804;23.426;2023-05-18T10:49:02;73294.78;;;-140.58;92.16
17309;BME280;8772;42.804;23.426;2023-05-18T10:51:30;73284.53;;;-140.58;97.80
17309;BME280;8772;42.804;23.426;2023-05-18T10:54:09;73296.84;;;-140.58;95.05
17309;BME280;8772;42.804;23.426;2023-05-18T10:56:37;73292.72;;;-140.58;95.46
17309;BME280;8772;42.804;23.426;2023-05-18T10:59:06;73296.84;;;-140.58;97.15
17309;BME280;8772;42.804;23.426;2023-05-18T11:01:35;73274.28;;;-140.58;93.55
17309;BME280;8772;42.804;23.426;2023-05-18T11:04:03;73257.88;;;-140.58;95.01
17309;BME280;8772;42.804;23.426;2023-05-18T11:06:30;73276.31;;;-140.58;98.20
17309;BME280;8772;42.804;23.426;2023-05-18T11:09:00;73264.03;;;-140.58;97.16
17309;BME280;8772;42.804;23.426;2023-05-18T11:11:27;73268.13;;;-140.58;95.57
17309;BME280;8772;42.804;23.426;2023-05-18T11:13:59;73259.91;;;-140.58;98.44
17309;BME280;8772;42.804;23.426;2023-05-18T11:16:32;73284.53;;;-140.58;95.25
17309;BME280;8772;42.804;23.426;2023-05-18T11:19:05;73251.72;;;-140.58;97.65
17309;BME280;8772;42.804;23.426;2023-05-18T11:21:50;73227.09;;;-140.58;100.00
17309;BME280;8772;42.804;23.426;2023-05-18T11:24:20;73210.69;;;-140.58;100.00
17309;BME280;8772;42.804;23.426;2023-05-18T11:26:49;73196.34;;;-140.58;100.00
17309;BME280;8772;42.804;23.426;2023-05-18T11:29:18;73229.16;;;-140.58;100.00
17309;BME280;8772;42.804;23.426;2023-05-18T11:31:46;73261.97;;;-140.58;100.00
17309;BME280;8772;42.804;23.426;2023-05-18T11:34:38;73264.03;;;-140.58;100.00
17309;BME280;8772;42.804;23.426;2023-05-18T11:37:07;73272.22;;;-140.58;100.00
17309;BME280;8772;42.804;23.426;2023-05-18T11:39:34;73270.16;;;-140.58;100.00
17309;BME280;8772;42.804;23.426;2023-05-18T11:42:05;73280.44;;;-140.58;100.00
17309;BME280;8772;42.804;23.426;2023-05-18T11:44:32;73292.72;;;-140.58;100.00
17309;BME280;8772;42.804;23.426;2023-05-18T11:47:00;73280.44;;;-140.58;100.00
17309;BME280;8772;42.804;23.426;2023-05-18T11:49:29;73268.13;;;-140.58;100.00
17309;BME280;8772;42.804;23.426;2023-05-18T11:52:08;73251.72;;;-140.58;100.00
17309;BME280;8772;42.804;23.426;2023-05-18T11:54:41;73251.72;;;-140.58;100.00
17309;BME280;8772;42.804;23.426;2023-05-18T11:57:09;73239.41;;;-140.58;100.00
17309;BME280;8772;42.804;23.426;2023-05-18T11:59:38;73225.03;;;-140.58;100.00
17309;BME280;8772;42.804;23.426;2023-05-18T12:02:06;73243.50;;;-140.58;100.00
17309;BME280;8772;42.804;23.426;2023-05-18T12:04:41;73218.91;;;-140.58;100.00
17309;BME280;8772;42.804;23.426;2023-05-18T12:07:10;73227.09;;;-140.58;100.00
17309;BME280;8772;42.804;23.426;2023-05-18T12:09:39;73210.69;;;-140.58;100.00
17309;BME280;8772;42.804;23.426;2023-05-18T12:12:09;73255.81;;;-140.58;100.00
17309;BME280;8772;42.804;23.426;2023-05-18T12:14:38;73268.13;;;-140.58;100.00
17309;BME280;8772;42.804;23.426;2023-05-18T12:17:06;73303.00;;;-140.58;100.00
17309;BME280;8772;42.804;23.426;2023-05-18T12:19:41;73325.56;;;-140.58;100.00
17309;BME280;8772;42.804;23.426;2023-05-18T12:22:10;73319.41;;;-140.58;100.00
17309;BME280;8772;42.804;23.426;2023-05-18T12:24:37;73317.34;;;-140.58;100.00
17309;BME280;8772;42.804;23.426;2023-05-18T12:27:05;73333.75;;;-140.58;100.00
17309;BME280;8772;42.804;23.426;2023-05-18T12:29:33;73346.06;;;-140.58;100.00
17309;BME280;8772;42.804;23.426;2023-05-18T12:32:04;73311.19;;;-140.58;100.00
17309;BME280;8772;42.804;23.426;2023-05-18T12:34:32;73309.13;;;-140.58;100.00
17309;BME280;8772;42.804;23.426;2023-05-18T12:36:59;73311.19;;;-140.58;100.00
17309;BME280;8772;42.804;23.426;2023-05-18T12:39:27;73296.84;;;-140.58;100.00
17309;BME280;8772;42.804;23.426;2023-05-18T12:42:07;73321.44;;;-140.58;100.00
17309;BME280;8772;42.804;23.426;2023-05-18T12:44:34;73323.50;;;-140.58;100.00